sensor_id;sensor_type;location;lat;lon;timestamp;P1;durP1;ratioP1;P2;durP2;ratioP2
7929;SDS011;4010;42.698;23.124;2022-09-09T00:00:23;3.87;;;3.20;;
7929;SDS011;4010;42.698;23.124;2022-09-09T00:02:54;4.10;;;3.27;;
7929;SDS011;4010;42.698;23.124;2022-09-09T00:05:29;3.37;;;3.07;;
7929;SDS011;4010;42.698;23.124;2022-09-09T00:08:03;3.30;;;3.00;;
7929;SDS011;4010;42.698;23.124;2022-09-09T00:10:31;3.50;;;3.20;;
7929;SDS011;4010;42.698;23.124;2022-09-09T00:13:04;3.73;;;3.43;;
7929;SDS011;4010;42.698;23.124;2022-09-09T00:15:43;4.30;;;3.87;;
7929;SDS011;4010;42.698;23.124;2022-09-09T00:18:21;3.60;;;3.30;;
7929;SDS011;4010;42.698;23.124;2022-09-09T00:20:55;3.60;;;3.30;;
7929;SDS011;4010;42.698;23.124;2022-09-09T00:23:30;5.43;;;3.77;;
7929;SDS011;4010;42.698;23.124;2022-09-09T00:26:03;4.83;;;3.33;;
7929;SDS011;4010;42.698;23.124;2022-09-09T00:28:39;3.73;;;3.43;;
7929;SDS011;4010;42.698;23.124;2022-09-09T00:31:12;3.17;;;2.87;;
7929;SDS011;4010;42.698;23.124;2022-09-09T00:33:43;3.53;;;3.23;;
7929;SDS011;4010;42.698;23.124;2022-09-09T00:36:12;3.20;;;2.90;;
7929;SDS011;4010;42.698;23.124;2022-09-09T00:38:42;3.87;;;3.50;;
7929;SDS011;4010;42.698;23.124;2022-09-09T00:41:11;3.97;;;3.57;;
7929;SDS011;4010;42.698;23.124;2022-09-09T00:43:49;3.23;;;2.90;;
7929;SDS011;4010;42.698;23.124;2022-09-09T00:49:20;3.47;;;3.17;;
7929;SDS011;4010;42.698;23.124;2022-09-09T00:51:58;5.30;;;4.00;;
7929;SDS011;4010;42.698;23.124;2022-09-09T00:54:34;4.53;;;3.57;;
7929;SDS011;4010;42.698;23.124;2022-09-09T00:57:11;3.70;;;3.23;;
7929;SDS011;4010;42.698;23.124;2022-09-09T00:59:47;5.13;;;3.47;;
7929;SDS011;4010;42.698;23.124;2022-09-09T01:02:21;3.03;;;2.73;;
7929;SDS011;4010;42.698;23.124;2022-09-09T01:04:54;3.30;;;3.00;;
7929;SDS011;4010;42.698;23.124;2022-09-09T01:07:23;3.00;;;2.70;;
7929;SDS011;4010;42.698;23.124;2022-09-09T01:09:54;2.97;;;2.67;;
7929;SDS011;4010;42.698;23.124;2022-09-09T01:12:29;3.50;;;3.20;;
7929;SDS011;4010;42.698;23.124;2022-09-09T01:15:12;3.40;;;3.10;;
7929;SDS011;4010;42.698;23.124;2022-09-09T01:17:48;4.03;;;3.13;;
7929;SDS011;4010;42.698;23.124;2022-09-09T01:20:23;3.70;;;3.20;;
7929;SDS011;4010;42.698;23.124;2022-09-09T01:23:04;2.80;;;2.50;;
7929;SDS011;4010;42.698;23.124;2022-09-09T01:26:07;3.03;;;2.70;;
7929;SDS011;4010;42.698;23.124;2022-09-09T01:28:39;3.87;;;3.47;;
7929;SDS011;4010;42.698;23.124;2022-09-09T01:31:09;3.50;;;3.10;;
7929;SDS011;4010;42.698;23.124;2022-09-09T01:33:39;3.53;;;2.87;;
7929;SDS011;4010;42.698;23.124;2022-09-09T01:36:06;3.63;;;2.93;;
7929;SDS011;4010;42.698;23.124;2022-09-09T01:38:36;3.50;;;3.17;;
7929;SDS011;4010;42.698;23.124;2022-09-09T01:41:04;3.07;;;2.77;;
7929;SDS011;4010;42.698;23.124;2022-09-09T01:43:31;3.53;;;3.20;;
7929;SDS011;4010;42.698;23.124;2022-09-09T01:45:59;4.43;;;3.50;;
7929;SDS011;4010;42.698;23.124;2022-09-09T01:48:28;2.70;;;2.50;;
7929;SDS011;4010;42.698;23.124;2022-09-09T01:50:55;4.27;;;3.47;;
7929;SDS011;4010;42.698;23.124;2022-09-09T01:53:21;2.97;;;2.77;;
7929;SDS011;4010;42.698;23.124;2022-09-09T01:55:51;3.60;;;3.20;;
7929;SDS011;4010;42.698;23.124;2022-09-09T01:58:31;3.53;;;3.23;;
7929;SDS011;4010;42.698;23.124;2022-09-09T02:01:06;6.50;;;3.30;;
7929;SDS011;4010;42.698;23.124;2022-09-09T02:03:39;4.37;;;3.30;;
7929;SDS011;4010;42.698;23.124;2022-09-09T02:06:14;4.00;;;3.50;;
7929;SDS011;4010;42.698;23.124;2022-09-09T02:08:53;4.20;;;3.77;;
7929;SDS011;4010;42.698;23.124;2022-09-09T02:11:23;4.30;;;3.37;;
7929;SDS011;4010;42.698;23.124;2022-09-09T02:13:53;3.10;;;2.80;;
7929;SDS011;4010;42.698;23.124;2022-09-09T02:16:23;3.53;;;3.13;;
7929;SDS011;4010;42.698;23.124;2022-09-09T02:18:55;4.23;;;3.83;;
7929;SDS011;4010;42.698;23.124;2022-09-09T02:21:24;3.70;;;3.40;;
7929;SDS011;4010;42.698;23.124;2022-09-09T02:23:54;3.63;;;3.23;;
7929;SDS011;4010;42.698;23.124;2022-09-09T02:26:24;3.13;;;2.83;;
7929;SDS011;4010;42.698;23.124;2022-09-09T02:28:54;3.80;;;3.40;;
7929;SDS011;4010;42.698;23.124;2022-09-09T02:31:23;3.60;;;3.30;;
7929;SDS011;4010;42.698;23.124;2022-09-09T02:33:51;3.97;;;3.57;;
7929;SDS011;4010;42.698;23.124;2022-09-09T02:36:21;3.63;;;3.20;;
7929;SDS011;4010;42.698;23.124;2022-09-09T02:38:50;3.70;;;3.10;;
7929;SDS011;4010;42.698;23.124;2022-09-09T02:41:19;4.27;;;3.73;;
7929;SDS011;4010;42.698;23.124;2022-09-09T02:43:50;4.27;;;3.60;;
7929;SDS011;4010;42.698;23.124;2022-09-09T02:49:08;4.90;;;3.67;;
7929;SDS011;4010;42.698;23.124;2022-09-09T02:51:39;6.67;;;4.30;;
7929;SDS011;4010;42.698;23.124;2022-09-09T02:54:15;3.70;;;3.27;;
7929;SDS011;4010;42.698;23.124;2022-09-09T02:56:47;4.37;;;3.70;;
7929;SDS011;4010;42.698;23.124;2022-09-09T02:59:19;4.83;;;3.77;;
7929;SDS011;4010;42.698;23.124;2022-09-09T03:01:48;4.27;;;3.53;;
7929;SDS011;4010;42.698;23.124;2022-09-09T03:04:15;4.57;;;3.83;;
7929;SDS011;4010;42.698;23.124;2022-09-09T03:07:19;5.33;;;3.73;;
7929;SDS011;4010;42.698;23.124;2022-09-09T03:10:44;4.53;;;3.57;;
7929;SDS011;4010;42.698;23.124;2022-09-09T03:14:09;4.30;;;3.77;;
7929;SDS011;4010;42.698;23.124;2022-09-09T03:17:36;3.63;;;3.33;;
7929;SDS011;4010;42.698;23.124;2022-09-09T03:20:03;3.67;;;3.27;;
7929;SDS011;4010;42.698;23.124;2022-09-09T03:53:46;5.40;;;4.77;;
7929;SDS011;4010;42.698;23.124;2022-09-09T03:56:13;4.20;;;3.80;;
7929;SDS011;4010;42.698;23.124;2022-09-09T03:58:40;3.60;;;3.30;;
7929;SDS011;4010;42.698;23.124;2022-09-09T04:01:07;4.13;;;3.83;;
7929;SDS011;4010;42.698;23.124;2022-09-09T04:03:35;3.70;;;3.27;;
7929;SDS011;4010;42.698;23.124;2022-09-09T04:06:02;3.60;;;3.30;;
7929;SDS011;4010;42.698;23.124;2022-09-09T04:08:31;4.03;;;3.53;;
7929;SDS011;4010;42.698;23.124;2022-09-09T04:11:00;3.87;;;3.57;;
7929;SDS011;4010;42.698;23.124;2022-09-09T04:13:31;4.63;;;3.50;;
7929;SDS011;4010;42.698;23.124;2022-09-09T04:15:59;4.23;;;3.83;;
7929;SDS011;4010;42.698;23.124;2022-09-09T04:18:27;4.43;;;4.03;;
7929;SDS011;4010;42.698;23.124;2022-09-09T04:20:54;4.50;;;3.57;;
7929;SDS011;4010;42.698;23.124;2022-09-09T04:23:22;5.10;;;4.20;;
7929;SDS011;4010;42.698;23.124;2022-09-09T04:25:50;3.80;;;3.43;;
7929;SDS011;4010;42.698;23.124;2022-09-09T04:28:20;3.83;;;3.53;;
7929;SDS011;4010;42.698;23.124;2022-09-09T04:30:48;4.03;;;3.63;;
7929;SDS011;4010;42.698;23.124;2022-09-09T04:33:15;5.70;;;4.53;;
7929;SDS011;4010;42.698;23.124;2022-09-09T04:35:44;5.73;;;3.93;;
7929;SDS011;4010;42.698;23.124;2022-09-09T04:38:12;5.13;;;3.77;;
7929;SDS011;4010;42.698;23.124;2022-09-09T04:40:41;4.57;;;4.17;;
7929;SDS011;4010;42.698;23.124;2022-09-09T04:43:09;5.23;;;4.73;;
7929;SDS011;4010;42.698;23.124;2022-09-09T04:45:37;5.33;;;4.83;;
7929;SDS011;4010;42.698;23.124;2022-09-09T04:48:05;7.07;;;6.33;;
7929;SDS011;4010;42.698;23.124;2022-09-09T04:50:32;9.90;;;8.00;;
7929;SDS011;4010;42.698;23.124;2022-09-09T04:52:59;9.93;;;8.93;;
7929;SDS011;4010;42.698;23.124;2022-09-09T04:55:27;8.63;;;7.77;;
7929;SDS011;4010;42.698;23.124;2022-09-09T04:57:53;6.07;;;5.57;;
7929;SDS011;4010;42.698;23.124;2022-09-09T05:00:20;5.77;;;4.77;;
7929;SDS011;4010;42.698;23.124;2022-09-09T05:02:48;4.20;;;3.80;;
7929;SDS011;4010;42.698;23.124;2022-09-09T05:05:16;3.80;;;3.40;;
7929;SDS011;4010;42.698;23.124;2022-09-09T05:07:43;3.70;;;3.40;;
7929;SDS011;4010;42.698;23.124;2022-09-09T05:10:10;3.60;;;3.27;;
7929;SDS011;4010;42.698;23.124;2022-09-09T05:12:41;3.17;;;2.93;;
7929;SDS011;4010;42.698;23.124;2022-09-09T05:15:08;3.20;;;2.93;;
7929;SDS011;4010;42.698;23.124;2022-09-09T05:17:36;3.30;;;3.00;;
7929;SDS011;4010;42.698;23.124;2022-09-09T05:20:05;3.63;;;3.27;;
7929;SDS011;4010;42.698;23.124;2022-09-09T05:22:32;3.30;;;3.00;;
7929;SDS011;4010;42.698;23.124;2022-09-09T05:24:59;3.60;;;3.30;;
7929;SDS011;4010;42.698;23.124;2022-09-09T05:27:27;5.47;;;3.70;;
7929;SDS011;4010;42.698;23.124;2022-09-09T05:29:56;4.07;;;3.77;;
7929;SDS011;4010;42.698;23.124;2022-09-09T05:32:23;4.17;;;3.83;;
7929;SDS011;4010;42.698;23.124;2022-09-09T05:34:50;4.23;;;3.83;;
7929;SDS011;4010;42.698;23.124;2022-09-09T05:37:18;3.93;;;3.63;;
7929;SDS011;4010;42.698;23.124;2022-09-09T05:39:45;4.20;;;3.80;;
7929;SDS011;4010;42.698;23.124;2022-09-09T05:42:12;4.40;;;4.00;;
7929;SDS011;4010;42.698;23.124;2022-09-09T05:44:38;4.03;;;3.47;;
7929;SDS011;4010;42.698;23.124;2022-09-09T05:47:07;3.73;;;3.43;;
7929;SDS011;4010;42.698;23.124;2022-09-09T05:49:34;4.57;;;4.17;;
7929;SDS011;4010;42.698;23.124;2022-09-09T05:52:01;3.73;;;3.43;;
7929;SDS011;4010;42.698;23.124;2022-09-09T05:54:30;4.40;;;4.00;;
7929;SDS011;4010;42.698;23.124;2022-09-09T05:56:57;4.10;;;3.80;;
7929;SDS011;4010;42.698;23.124;2022-09-09T05:59:24;4.07;;;3.67;;
7929;SDS011;4010;42.698;23.124;2022-09-09T06:01:51;4.33;;;4.00;;
7929;SDS011;4010;42.698;23.124;2022-09-09T06:04:18;4.20;;;3.83;;
7929;SDS011;4010;42.698;23.124;2022-09-09T06:06:47;4.17;;;3.77;;
7929;SDS011;4010;42.698;23.124;2022-09-09T06:09:14;4.67;;;4.27;;
7929;SDS011;4010;42.698;23.124;2022-09-09T06:11:42;4.20;;;3.80;;
7929;SDS011;4010;42.698;23.124;2022-09-09T06:14:09;4.07;;;3.77;;
7929;SDS011;4010;42.698;23.124;2022-09-09T06:16:36;4.77;;;4.37;;
7929;SDS011;4010;42.698;23.124;2022-09-09T06:19:03;4.03;;;3.70;;
7929;SDS011;4010;42.698;23.124;2022-09-09T06:21:30;4.37;;;3.97;;
7929;SDS011;4010;42.698;23.124;2022-09-09T06:23:58;4.27;;;3.87;;
7929;SDS011;4010;42.698;23.124;2022-09-09T06:26:26;4.00;;;3.67;;
7929;SDS011;4010;42.698;23.124;2022-09-09T06:28:57;4.57;;;3.60;;
7929;SDS011;4010;42.698;23.124;2022-09-09T06:31:25;3.60;;;3.30;;
7929;SDS011;4010;42.698;23.124;2022-09-09T06:33:55;4.10;;;3.80;;
7929;SDS011;4010;42.698;23.124;2022-09-09T06:36:24;4.43;;;4.03;;
7929;SDS011;4010;42.698;23.124;2022-09-09T06:38:52;4.17;;;3.77;;
7929;SDS011;4010;42.698;23.124;2022-09-09T06:41:20;4.33;;;3.93;;
7929;SDS011;4010;42.698;23.124;2022-09-09T06:43:48;4.60;;;4.20;;
7929;SDS011;4010;42.698;23.124;2022-09-09T06:46:17;3.93;;;3.63;;
7929;SDS011;4010;42.698;23.124;2022-09-09T06:48:45;4.20;;;3.80;;
7929;SDS011;4010;42.698;23.124;2022-09-09T06:51:13;5.00;;;3.50;;
7929;SDS011;4010;42.698;23.124;2022-09-09T06:53:41;4.43;;;4.03;;
7929;SDS011;4010;42.698;23.124;2022-09-09T06:56:19;4.47;;;4.07;;
7929;SDS011;4010;42.698;23.124;2022-09-09T06:58:48;3.87;;;3.57;;
7929;SDS011;4010;42.698;23.124;2022-09-09T07:01:18;3.83;;;3.43;;
7929;SDS011;4010;42.698;23.124;2022-09-09T07:03:48;4.13;;;3.83;;
7929;SDS011;4010;42.698;23.124;2022-09-09T07:06:16;3.80;;;3.50;;
7929;SDS011;4010;42.698;23.124;2022-09-09T07:08:48;3.80;;;3.47;;
7929;SDS011;4010;42.698;23.124;2022-09-09T07:11:16;3.67;;;3.37;;
7929;SDS011;4010;42.698;23.124;2022-09-09T07:13:45;4.63;;;4.23;;
7929;SDS011;4010;42.698;23.124;2022-09-09T07:16:12;4.03;;;3.70;;
7929;SDS011;4010;42.698;23.124;2022-09-09T07:18:42;4.03;;;3.73;;
7929;SDS011;4010;42.698;23.124;2022-09-09T07:21:10;3.77;;;3.47;;
7929;SDS011;4010;42.698;23.124;2022-09-09T07:23:38;3.77;;;3.47;;
7929;SDS011;4010;42.698;23.124;2022-09-09T07:26:07;4.43;;;4.03;;
7929;SDS011;4010;42.698;23.124;2022-09-09T07:28:35;3.93;;;3.63;;
7929;SDS011;4010;42.698;23.124;2022-09-09T07:31:03;3.43;;;3.20;;
7929;SDS011;4010;42.698;23.124;2022-09-09T07:33:31;4.17;;;3.80;;
7929;SDS011;4010;42.698;23.124;2022-09-09T07:36:04;4.50;;;4.10;;
7929;SDS011;4010;42.698;23.124;2022-09-09T07:38:37;4.33;;;3.93;;
7929;SDS011;4010;42.698;23.124;2022-09-09T07:41:06;3.87;;;3.57;;
7929;SDS011;4010;42.698;23.124;2022-09-09T07:43:36;3.77;;;3.47;;
7929;SDS011;4010;42.698;23.124;2022-09-09T07:46:04;4.50;;;4.10;;
7929;SDS011;4010;42.698;23.124;2022-09-09T07:48:31;3.87;;;3.57;;
7929;SDS011;4010;42.698;23.124;2022-09-09T07:51:06;5.73;;;4.07;;
7929;SDS011;4010;42.698;23.124;2022-09-09T07:53:35;4.20;;;3.83;;
7929;SDS011;4010;42.698;23.124;2022-09-09T07:56:04;4.57;;;4.17;;
7929;SDS011;4010;42.698;23.124;2022-09-09T07:58:34;4.47;;;4.17;;
7929;SDS011;4010;42.698;23.124;2022-09-09T08:01:05;5.13;;;4.73;;
7929;SDS011;4010;42.698;23.124;2022-09-09T08:03:33;4.23;;;3.90;;
7929;SDS011;4010;42.698;23.124;2022-09-09T08:06:00;4.17;;;3.77;;
7929;SDS011;4010;42.698;23.124;2022-09-09T08:08:29;4.40;;;3.83;;
7929;SDS011;4010;42.698;23.124;2022-09-09T08:11:03;4.10;;;3.73;;
7929;SDS011;4010;42.698;23.124;2022-09-09T08:13:32;4.07;;;3.70;;
7929;SDS011;4010;42.698;23.124;2022-09-09T08:16:09;5.03;;;4.20;;
7929;SDS011;4010;42.698;23.124;2022-09-09T08:18:37;4.47;;;4.07;;
7929;SDS011;4010;42.698;23.124;2022-09-09T08:21:05;4.23;;;3.90;;
7929;SDS011;4010;42.698;23.124;2022-09-09T08:23:34;4.33;;;3.93;;
7929;SDS011;4010;42.698;23.124;2022-09-09T08:26:05;4.20;;;3.83;;
7929;SDS011;4010;42.698;23.124;2022-09-09T08:28:34;4.67;;;4.27;;
7929;SDS011;4010;42.698;23.124;2022-09-09T08:31:07;3.70;;;3.40;;
7929;SDS011;4010;42.698;23.124;2022-09-09T08:33:35;3.60;;;3.30;;
7929;SDS011;4010;42.698;23.124;2022-09-09T08:36:03;3.73;;;3.43;;
7929;SDS011;4010;42.698;23.124;2022-09-09T08:38:31;3.63;;;3.33;;
7929;SDS011;4010;42.698;23.124;2022-09-09T08:44:07;4.10;;;3.80;;
7929;SDS011;4010;42.698;23.124;2022-09-09T08:46:43;4.17;;;3.77;;
7929;SDS011;4010;42.698;23.124;2022-09-09T08:49:29;4.20;;;3.90;;
7929;SDS011;4010;42.698;23.124;2022-09-09T08:52:12;4.63;;;4.30;;
7929;SDS011;4010;42.698;23.124;2022-09-09T08:54:43;4.00;;;3.70;;
7929;SDS011;4010;42.698;23.124;2022-09-09T08:57:13;4.30;;;3.87;;
7929;SDS011;4010;42.698;23.124;2022-09-09T08:59:44;4.60;;;4.20;;
7929;SDS011;4010;42.698;23.124;2022-09-09T09:02:14;4.27;;;3.87;;
7929;SDS011;4010;42.698;23.124;2022-09-09T09:04:47;4.30;;;3.90;;
7929;SDS011;4010;42.698;23.124;2022-09-09T09:07:27;4.00;;;3.70;;
7929;SDS011;4010;42.698;23.124;2022-09-09T09:10:04;3.93;;;3.53;;
7929;SDS011;4010;42.698;23.124;2022-09-09T09:12:41;4.23;;;3.83;;
7929;SDS011;4010;42.698;23.124;2022-09-09T09:15:14;4.40;;;4.10;;
7929;SDS011;4010;42.698;23.124;2022-09-09T09:17:46;4.30;;;3.97;;
7929;SDS011;4010;42.698;23.124;2022-09-09T09:20:14;5.10;;;4.60;;
7929;SDS011;4010;42.698;23.124;2022-09-09T09:22:45;4.27;;;3.97;;
7929;SDS011;4010;42.698;23.124;2022-09-09T09:25:16;4.60;;;4.20;;
7929;SDS011;4010;42.698;23.124;2022-09-09T09:27:49;4.27;;;3.90;;
7929;SDS011;4010;42.698;23.124;2022-09-09T09:30:23;4.20;;;3.90;;
7929;SDS011;4010;42.698;23.124;2022-09-09T09:32:55;3.63;;;3.33;;
7929;SDS011;4010;42.698;23.124;2022-09-09T09:35:27;5.67;;;4.20;;
7929;SDS011;4010;42.698;23.124;2022-09-09T09:37:54;4.53;;;4.13;;
7929;SDS011;4010;42.698;23.124;2022-09-09T09:40:21;5.20;;;4.70;;
7929;SDS011;4010;42.698;23.124;2022-09-09T09:42:51;4.83;;;4.47;;
7929;SDS011;4010;42.698;23.124;2022-09-09T09:45:26;4.10;;;3.80;;
7929;SDS011;4010;42.698;23.124;2022-09-09T09:48:00;4.30;;;3.90;;
7929;SDS011;4010;42.698;23.124;2022-09-09T09:50:28;4.50;;;4.10;;
7929;SDS011;4010;42.698;23.124;2022-09-09T09:52:56;4.43;;;4.10;;
7929;SDS011;4010;42.698;23.124;2022-09-09T09:55:25;4.40;;;4.07;;
7929;SDS011;4010;42.698;23.124;2022-09-09T09:58:01;5.23;;;3.90;;
7929;SDS011;4010;42.698;23.124;2022-09-09T10:00:29;4.50;;;4.10;;
7929;SDS011;4010;42.698;23.124;2022-09-09T10:02:56;4.67;;;4.27;;
7929;SDS011;4010;42.698;23.124;2022-09-09T10:05:26;4.37;;;3.93;;
7929;SDS011;4010;42.698;23.124;2022-09-09T10:08:04;4.67;;;4.13;;
7929;SDS011;4010;42.698;23.124;2022-09-09T10:13:39;4.70;;;4.30;;
7929;SDS011;4010;42.698;23.124;2022-09-09T10:16:18;4.70;;;4.30;;
7929;SDS011;4010;42.698;23.124;2022-09-09T10:18:58;4.23;;;3.83;;
7929;SDS011;4010;42.698;23.124;2022-09-09T10:21:37;4.60;;;3.87;;
7929;SDS011;4010;42.698;23.124;2022-09-09T10:24:25;3.90;;;3.60;;
7929;SDS011;4010;42.698;23.124;2022-09-09T10:27:16;3.80;;;3.50;;
7929;SDS011;4010;42.698;23.124;2022-09-09T10:29:57;4.67;;;4.27;;
7929;SDS011;4010;42.698;23.124;2022-09-09T10:32:45;4.43;;;4.03;;
7929;SDS011;4010;42.698;23.124;2022-09-09T10:35:26;4.93;;;4.53;;
7929;SDS011;4010;42.698;23.124;2022-09-09T10:38:16;5.13;;;3.97;;
7929;SDS011;4010;42.698;23.124;2022-09-09T10:43:42;4.50;;;4.10;;
7929;SDS011;4010;42.698;23.124;2022-09-09T10:46:29;4.63;;;4.23;;
7929;SDS011;4010;42.698;23.124;2022-09-09T10:49:08;4.20;;;3.80;;
7929;SDS011;4010;42.698;23.124;2022-09-09T10:51:46;4.40;;;3.97;;
7929;SDS011;4010;42.698;23.124;2022-09-09T10:54:27;4.33;;;3.93;;
7929;SDS011;4010;42.698;23.124;2022-09-09T10:57:03;4.30;;;3.67;;
7929;SDS011;4010;42.698;23.124;2022-09-09T10:59:38;5.00;;;4.50;;
7929;SDS011;4010;42.698;23.124;2022-09-09T11:02:12;4.37;;;3.97;;
7929;SDS011;4010;42.698;23.124;2022-09-09T11:04:45;3.97;;;3.67;;
7929;SDS011;4010;42.698;23.124;2022-09-09T11:07:18;4.73;;;4.33;;
7929;SDS011;4010;42.698;23.124;2022-09-09T11:09:52;4.73;;;4.33;;
7929;SDS011;4010;42.698;23.124;2022-09-09T11:12:26;4.60;;;4.20;;
7929;SDS011;4010;42.698;23.124;2022-09-09T11:14:57;5.00;;;4.53;;
7929;SDS011;4010;42.698;23.124;2022-09-09T11:17:33;4.20;;;3.80;;
7929;SDS011;4010;42.698;23.124;2022-09-09T11:20:05;4.83;;;4.43;;
7929;SDS011;4010;42.698;23.124;2022-09-09T11:22:37;3.70;;;3.40;;
7929;SDS011;4010;42.698;23.124;2022-09-09T11:25:10;4.23;;;3.83;;
7929;SDS011;4010;42.698;23.124;2022-09-09T11:27:44;3.67;;;3.37;;
7929;SDS011;4010;42.698;23.124;2022-09-09T11:30:27;3.90;;;3.57;;
7929;SDS011;4010;42.698;23.124;2022-09-09T11:33:16;3.83;;;3.53;;
7929;SDS011;4010;42.698;23.124;2022-09-09T11:36:11;3.57;;;3.27;;
7929;SDS011;4010;42.698;23.124;2022-09-09T11:38:51;3.90;;;3.60;;
7929;SDS011;4010;42.698;23.124;2022-09-09T11:41:19;3.53;;;3.20;;
7929;SDS011;4010;42.698;23.124;2022-09-09T11:43:48;4.40;;;4.00;;
7929;SDS011;4010;42.698;23.124;2022-09-09T11:46:17;4.30;;;3.90;;
7929;SDS011;4010;42.698;23.124;2022-09-09T11:48:58;3.77;;;3.47;;
7929;SDS011;4010;42.698;23.124;2022-09-09T11:51:26;5.20;;;3.83;;
7929;SDS011;4010;42.698;23.124;2022-09-09T11:53:55;4.03;;;3.63;;
7929;SDS011;4010;42.698;23.124;2022-09-09T11:56:27;4.10;;;3.80;;
7929;SDS011;4010;42.698;23.124;2022-09-09T11:59:00;5.43;;;3.63;;
7929;SDS011;4010;42.698;23.124;2022-09-09T12:01:38;4.17;;;3.87;;
7929;SDS011;4010;42.698;23.124;2022-09-09T12:07:00;3.83;;;3.53;;
7929;SDS011;4010;42.698;23.124;2022-09-09T12:09:30;4.20;;;3.90;;
7929;SDS011;4010;42.698;23.124;2022-09-09T12:12:07;3.77;;;3.47;;
7929;SDS011;4010;42.698;23.124;2022-09-09T12:14:55;3.73;;;3.43;;
7929;SDS011;4010;42.698;23.124;2022-09-09T12:17:25;3.77;;;3.43;;
7929;SDS011;4010;42.698;23.124;2022-09-09T12:20:06;3.43;;;3.17;;
7929;SDS011;4010;42.698;23.124;2022-09-09T12:22:41;3.73;;;3.43;;
7929;SDS011;4010;42.698;23.124;2022-09-09T12:25:28;3.50;;;3.20;;
7929;SDS011;4010;42.698;23.124;2022-09-09T12:28:04;4.03;;;3.60;;
7929;SDS011;4010;42.698;23.124;2022-09-09T12:30:37;3.53;;;3.23;;
7929;SDS011;4010;42.698;23.124;2022-09-09T12:33:13;4.13;;;3.83;;
7929;SDS011;4010;42.698;23.124;2022-09-09T12:35:47;4.17;;;3.73;;
7929;SDS011;4010;42.698;23.124;2022-09-09T12:38:21;3.57;;;3.23;;
7929;SDS011;4010;42.698;23.124;2022-09-09T12:40:57;3.70;;;3.43;;
7929;SDS011;4010;42.698;23.124;2022-09-09T12:43:26;3.50;;;3.20;;
7929;SDS011;4010;42.698;23.124;2022-09-09T12:45:55;4.30;;;3.90;;
7929;SDS011;4010;42.698;23.124;2022-09-09T12:48:28;3.70;;;3.40;;
7929;SDS011;4010;42.698;23.124;2022-09-09T12:51:16;3.70;;;3.40;;
7929;SDS011;4010;42.698;23.124;2022-09-09T12:53:47;3.43;;;3.13;;
7929;SDS011;4010;42.698;23.124;2022-09-09T12:56:18;3.83;;;3.53;;
7929;SDS011;4010;42.698;23.124;2022-09-09T12:58:49;3.63;;;3.10;;
7929;SDS011;4010;42.698;23.124;2022-09-09T13:01:20;3.37;;;3.07;;
7929;SDS011;4010;42.698;23.124;2022-09-09T13:03:48;3.87;;;3.57;;
7929;SDS011;4010;42.698;23.124;2022-09-09T13:06:19;3.40;;;3.10;;
7929;SDS011;4010;42.698;23.124;2022-09-09T13:08:56;5.47;;;3.43;;
7929;SDS011;4010;42.698;23.124;2022-09-09T13:11:26;3.43;;;3.13;;
7929;SDS011;4010;42.698;23.124;2022-09-09T13:13:56;4.83;;;2.90;;
7929;SDS011;4010;42.698;23.124;2022-09-09T13:16:25;3.13;;;2.83;;
7929;SDS011;4010;42.698;23.124;2022-09-09T13:18:56;3.37;;;3.07;;
7929;SDS011;4010;42.698;23.124;2022-09-09T13:21:35;3.43;;;3.17;;
7929;SDS011;4010;42.698;23.124;2022-09-09T13:24:04;3.70;;;2.73;;
7929;SDS011;4010;42.698;23.124;2022-09-09T13:26:32;3.20;;;2.90;;
7929;SDS011;4010;42.698;23.124;2022-09-09T13:29:07;2.97;;;2.67;;
7929;SDS011;4010;42.698;23.124;2022-09-09T13:31:43;2.50;;;2.30;;
7929;SDS011;4010;42.698;23.124;2022-09-09T13:34:11;4.07;;;2.63;;
7929;SDS011;4010;42.698;23.124;2022-09-09T13:36:40;2.97;;;2.63;;
7929;SDS011;4010;42.698;23.124;2022-09-09T13:39:13;3.10;;;2.80;;
7929;SDS011;4010;42.698;23.124;2022-09-09T13:41:43;2.67;;;2.47;;
7929;SDS011;4010;42.698;23.124;2022-09-09T13:44:14;2.90;;;2.70;;
7929;SDS011;4010;42.698;23.124;2022-09-09T13:46:58;5.03;;;3.00;;
7929;SDS011;4010;42.698;23.124;2022-09-09T13:49:27;3.33;;;3.13;;
7929;SDS011;4010;42.698;23.124;2022-09-09T13:52:04;3.17;;;2.90;;
7929;SDS011;4010;42.698;23.124;2022-09-09T13:54:32;3.33;;;3.03;;
7929;SDS011;4010;42.698;23.124;2022-09-09T13:57:00;3.50;;;2.90;;
7929;SDS011;4010;42.698;23.124;2022-09-09T13:59:27;3.13;;;2.93;;
7929;SDS011;4010;42.698;23.124;2022-09-09T14:01:54;3.00;;;2.80;;
7929;SDS011;4010;42.698;23.124;2022-09-09T14:04:21;3.00;;;2.63;;
7929;SDS011;4010;42.698;23.124;2022-09-09T14:06:48;3.20;;;2.90;;
7929;SDS011;4010;42.698;23.124;2022-09-09T14:09:17;2.40;;;2.20;;
7929;SDS011;4010;42.698;23.124;2022-09-09T14:11:44;3.07;;;2.77;;
7929;SDS011;4010;42.698;23.124;2022-09-09T14:14:11;3.57;;;2.57;;
7929;SDS011;4010;42.698;23.124;2022-09-09T14:16:38;3.47;;;3.17;;
7929;SDS011;4010;42.698;23.124;2022-09-09T14:19:05;3.13;;;2.83;;
7929;SDS011;4010;42.698;23.124;2022-09-09T14:21:31;3.23;;;2.87;;
7929;SDS011;4010;42.698;23.124;2022-09-09T14:23:58;3.00;;;2.80;;
7929;SDS011;4010;42.698;23.124;2022-09-09T14:26:26;3.50;;;3.20;;
7929;SDS011;4010;42.698;23.124;2022-09-09T14:28:53;3.80;;;3.40;;
7929;SDS011;4010;42.698;23.124;2022-09-09T14:31:21;2.87;;;2.67;;
7929;SDS011;4010;42.698;23.124;2022-09-09T14:33:48;3.87;;;3.20;;
7929;SDS011;4010;42.698;23.124;2022-09-09T14:36:15;4.00;;;3.53;;
7929;SDS011;4010;42.698;23.124;2022-09-09T14:38:45;3.50;;;3.20;;
7929;SDS011;4010;42.698;23.124;2022-09-09T14:41:16;3.70;;;3.40;;
7929;SDS011;4010;42.698;23.124;2022-09-09T14:43:46;3.57;;;3.27;;
7929;SDS011;4010;42.698;23.124;2022-09-09T14:46:13;3.57;;;3.27;;
7929;SDS011;4010;42.698;23.124;2022-09-09T14:48:42;3.50;;;3.20;;
7929;SDS011;4010;42.698;23.124;2022-09-09T14:51:10;3.63;;;3.33;;
7929;SDS011;4010;42.698;23.124;2022-09-09T14:53:39;2.80;;;2.60;;
7929;SDS011;4010;42.698;23.124;2022-09-09T14:56:10;4.07;;;3.67;;
7929;SDS011;4010;42.698;23.124;2022-09-09T14:58:38;3.53;;;3.23;;
7929;SDS011;4010;42.698;23.124;2022-09-09T15:01:06;4.87;;;2.90;;
7929;SDS011;4010;42.698;23.124;2022-09-09T15:03:35;3.37;;;3.07;;
7929;SDS011;4010;42.698;23.124;2022-09-09T15:06:06;3.43;;;3.13;;
7929;SDS011;4010;42.698;23.124;2022-09-09T15:08:34;3.80;;;3.40;;
7929;SDS011;4010;42.698;23.124;2022-09-09T15:11:01;3.83;;;3.53;;
7929;SDS011;4010;42.698;23.124;2022-09-09T15:13:29;4.43;;;3.47;;
7929;SDS011;4010;42.698;23.124;2022-09-09T15:15:55;3.50;;;3.20;;
7929;SDS011;4010;42.698;23.124;2022-09-09T15:18:30;3.47;;;3.17;;
7929;SDS011;4010;42.698;23.124;2022-09-09T15:20:58;3.67;;;3.23;;
7929;SDS011;4010;42.698;23.124;2022-09-09T15:23:25;2.80;;;2.60;;
7929;SDS011;4010;42.698;23.124;2022-09-09T15:25:51;3.73;;;3.43;;
7929;SDS011;4010;42.698;23.124;2022-09-09T15:28:18;4.40;;;4.00;;
7929;SDS011;4010;42.698;23.124;2022-09-09T15:30:47;3.90;;;3.60;;
7929;SDS011;4010;42.698;23.124;2022-09-09T15:33:14;3.30;;;3.00;;
7929;SDS011;4010;42.698;23.124;2022-09-09T15:35:42;4.60;;;4.17;;
7929;SDS011;4010;42.698;23.124;2022-09-09T15:38:09;5.93;;;5.17;;
7929;SDS011;4010;42.698;23.124;2022-09-09T15:40:38;4.80;;;4.40;;
7929;SDS011;4010;42.698;23.124;2022-09-09T15:43:04;5.77;;;4.77;;
7929;SDS011;4010;42.698;23.124;2022-09-09T15:45:31;6.03;;;5.43;;
7929;SDS011;4010;42.698;23.124;2022-09-09T15:47:58;4.43;;;4.03;;
7929;SDS011;4010;42.698;23.124;2022-09-09T15:50:25;3.97;;;3.50;;
7929;SDS011;4010;42.698;23.124;2022-09-09T15:52:53;2.83;;;2.63;;
7929;SDS011;4010;42.698;23.124;2022-09-09T15:55:21;2.80;;;2.60;;
7929;SDS011;4010;42.698;23.124;2022-09-09T15:57:49;2.83;;;2.60;;
7929;SDS011;4010;42.698;23.124;2022-09-09T16:00:17;3.40;;;3.00;;
7929;SDS011;4010;42.698;23.124;2022-09-09T16:02:45;2.77;;;2.57;;
7929;SDS011;4010;42.698;23.124;2022-09-09T16:05:13;4.03;;;3.50;;
7929;SDS011;4010;42.698;23.124;2022-09-09T16:07:40;3.13;;;2.83;;
7929;SDS011;4010;42.698;23.124;2022-09-09T16:10:09;3.77;;;3.03;;
7929;SDS011;4010;42.698;23.124;2022-09-09T16:12:36;3.90;;;3.13;;
7929;SDS011;4010;42.698;23.124;2022-09-09T16:15:03;3.43;;;2.93;;